Terminal Aerodrome Forecast
Issued by NWS South Bend, IN

Home | Current Version | Previous Version | Text Only | Print | Product List | Glossary Off
Versions: 1 2 3 4 5 6 7 8 9 10 11 12 13

000
FTUS43 KIWX 251900 AAA
TAFSBN
TAF AMD
KSBN 251955Z 2520/2618 08011KT 4SM -RA SCT018 OVC025
      TEMPO 2520/2522 3SM -RA BR BKN018
     FM252300 06011KT P6SM OVC040
     FM260300 04007KT P6SM SCT120
     FM261400 01011KT P6SM FEW040=

USA.gov is the U.S. government's official web portal to all federal, state and local government web resources and services.